Startpagina
METAR-TAF:

METAR-TAF

Vliegvelden :

Damascus, Syrië

Luchthaven Damascus

breedte: 33-25N, lengte: 036-31E, hoogte: 608 m

Actueel weer

Dit bericht is 41 minuten geleden gemaakt, om 16:00 UTC
Wind 7 kt uit het noordwesten
Temperatuur 29°C
Vochtigheid 11%
Druk 1013 hPa
Zicht 10 km of meer
geen wolken onder 1500 m en geen cumulonimbus

METAR: OSDI 271600Z 32007KT CAVOK 29/M04 Q1013

Tijdstip: 19:41 (16:41 UTC)

Verwachting

Verwachting geldig van 27 om 12 UTC tot 28 om 18 UTC
Wind 10 kt uit het oosten
Zicht 10 km of meer
geen wolken onder 1500 m en geen cumulonimbus
Tijdelijke
van 27 om 12 UTC tot 27 om 18 UTC
Wind 10 kt uit het zuidzuidwesten met uitschieters tot 25 kt
Zicht: 8000 m
Weinig wolken op 3000 ft

TAF: OSDI 2712/2818 09010KT CAVOK TEMPO 2712/2718 21010G25KT 8000 FEW030

Waarnemingen en weersverwachtingen van meer dan 4000 vliegvelden (METAR en TAF).

De beschikbare stations zijn de gele en rode punten op de kaart.

Ga met uw muis naar het station om de naam te zien.

Klik dan om waarnemingen en weersverwachtingen te zien.

kaart wijzigen: klik op de groene knoppen met een zwart kruis om in te zoomen, op de groene knop met een streepje om uit te zoomen of op de groene pijlen voor aangrenzende kaarten.


METAR-TAF: